Terminal Aerodrome Forecast
Issued by NWS

Home | Current Version | Previous Version | Text Only | Print | Product List | Glossary On
Versions: 1 2 3 4 5 6 7 8 9 10 11 12 13 14 15 16 17 18 19 20 21 22 23 24 25
694
FTUS46 KEKA 272343
TAFCEC
TAF
KCEC 272343Z 2800/2824 32007KT P6SM SCT050 SCT100
     FM280400 36003KT P6SM FEW050 BKN100 BKN250
     FM281200 07003KT 6SM BR FEW006 SCT150 BKN250
     FM281800 24005KT P6SM BKN120 BKN250=

USA.gov is the U.S. government's official web portal to all federal, state and local government web resources and services.